sensor_id;sensor_type;location;lat;lon;timestamp;P1;durP1;ratioP1;P2;durP2;ratioP2
52102;SDS011;38101;53.126;6.878;2023-07-13T00:00:25;3.60;;;2.17;;
52102;SDS011;38101;53.126;6.878;2023-07-13T00:02:50;4.28;;;2.20;;
52102;SDS011;38101;53.126;6.878;2023-07-13T00:05:21;6.70;;;2.45;;
52102;SDS011;38101;53.126;6.878;2023-07-13T00:07:48;3.55;;;2.00;;
52102;SDS011;38101;53.126;6.878;2023-07-13T00:10:16;5.35;;;2.28;;
52102;SDS011;38101;53.126;6.878;2023-07-13T00:12:42;4.25;;;2.03;;
52102;SDS011;38101;53.126;6.878;2023-07-13T00:15:17;5.57;;;2.80;;
52102;SDS011;38101;53.126;6.878;2023-07-13T00:17:48;5.95;;;2.40;;
52102;SDS011;38101;53.126;6.878;2023-07-13T00:20:15;4.43;;;2.20;;
52102;SDS011;38101;53.126;6.878;2023-07-13T00:22:41;3.35;;;1.95;;
52102;SDS011;38101;53.126;6.878;2023-07-13T00:25:08;5.85;;;2.80;;
52102;SDS011;38101;53.126;6.878;2023-07-13T00:27:37;3.72;;;2.15;;
52102;SDS011;38101;53.126;6.878;2023-07-13T00:30:03;4.88;;;2.08;;
52102;SDS011;38101;53.126;6.878;2023-07-13T00:32:29;8.00;;;2.20;;
52102;SDS011;38101;53.126;6.878;2023-07-13T00:34:55;7.50;;;2.38;;
52102;SDS011;38101;53.126;6.878;2023-07-13T00:37:22;5.45;;;2.35;;
52102;SDS011;38101;53.126;6.878;2023-07-13T00:39:48;5.35;;;2.83;;
52102;SDS011;38101;53.126;6.878;2023-07-13T00:42:14;4.30;;;2.40;;
52102;SDS011;38101;53.126;6.878;2023-07-13T00:44:40;5.03;;;2.58;;
52102;SDS011;38101;53.126;6.878;2023-07-13T00:47:05;6.38;;;2.72;;
52102;SDS011;38101;53.126;6.878;2023-07-13T00:49:32;5.03;;;2.38;;
52102;SDS011;38101;53.126;6.878;2023-07-13T00:52:02;6.75;;;2.30;;
52102;SDS011;38101;53.126;6.878;2023-07-13T00:54:37;5.57;;;2.22;;
52102;SDS011;38101;53.126;6.878;2023-07-13T00:57:06;5.78;;;2.60;;
52102;SDS011;38101;53.126;6.878;2023-07-13T00:59:34;6.75;;;2.60;;
52102;SDS011;38101;53.126;6.878;2023-07-13T01:02:02;5.78;;;2.20;;
52102;SDS011;38101;53.126;6.878;2023-07-13T01:04:28;7.70;;;2.40;;
52102;SDS011;38101;53.126;6.878;2023-07-13T01:06:54;3.67;;;2.15;;
52102;SDS011;38101;53.126;6.878;2023-07-13T01:09:20;6.43;;;2.67;;
52102;SDS011;38101;53.126;6.878;2023-07-13T01:11:46;6.00;;;2.22;;
52102;SDS011;38101;53.126;6.878;2023-07-13T01:14:13;5.60;;;2.50;;
52102;SDS011;38101;53.126;6.878;2023-07-13T01:16:39;6.38;;;2.13;;
52102;SDS011;38101;53.126;6.878;2023-07-13T01:19:41;5.63;;;2.13;;
52102;SDS011;38101;53.126;6.878;2023-07-13T01:22:01;6.13;;;2.20;;
52102;SDS011;38101;53.126;6.878;2023-07-13T01:24:34;7.10;;;2.95;;
52102;SDS011;38101;53.126;6.878;2023-07-13T01:27:01;5.25;;;3.10;;
52102;SDS011;38101;53.126;6.878;2023-07-13T01:29:27;14.30;;;2.80;;
52102;SDS011;38101;53.126;6.878;2023-07-13T01:31:53;4.63;;;2.08;;
52102;SDS011;38101;53.126;6.878;2023-07-13T01:34:19;5.55;;;2.33;;
52102;SDS011;38101;53.126;6.878;2023-07-13T01:36:44;5.72;;;2.33;;
52102;SDS011;38101;53.126;6.878;2023-07-13T01:39:10;4.35;;;2.28;;
52102;SDS011;38101;53.126;6.878;2023-07-13T01:41:36;5.13;;;2.35;;
52102;SDS011;38101;53.126;6.878;2023-07-13T01:44:01;6.18;;;2.35;;
52102;SDS011;38101;53.126;6.878;2023-07-13T01:46:27;5.25;;;2.38;;
52102;SDS011;38101;53.126;6.878;2023-07-13T01:48:53;6.22;;;2.08;;
52102;SDS011;38101;53.126;6.878;2023-07-13T01:51:19;6.88;;;2.83;;
52102;SDS011;38101;53.126;6.878;2023-07-13T01:53:45;8.80;;;2.60;;
52102;SDS011;38101;53.126;6.878;2023-07-13T01:56:11;4.93;;;2.40;;
52102;SDS011;38101;53.126;6.878;2023-07-13T01:58:36;8.90;;;2.72;;
52102;SDS011;38101;53.126;6.878;2023-07-13T02:01:02;6.32;;;2.63;;
52102;SDS011;38101;53.126;6.878;2023-07-13T02:03:28;9.25;;;3.00;;
52102;SDS011;38101;53.126;6.878;2023-07-13T02:05:53;11.60;;;2.50;;
52102;SDS011;38101;53.126;6.878;2023-07-13T02:08:19;6.53;;;2.20;;
52102;SDS011;38101;53.126;6.878;2023-07-13T02:10:45;7.75;;;2.38;;
52102;SDS011;38101;53.126;6.878;2023-07-13T02:13:10;7.40;;;2.72;;
52102;SDS011;38101;53.126;6.878;2023-07-13T02:15:38;7.45;;;3.17;;
52102;SDS011;38101;53.126;6.878;2023-07-13T02:18:05;5.13;;;2.42;;
52102;SDS011;38101;53.126;6.878;2023-07-13T02:20:31;5.05;;;2.30;;
52102;SDS011;38101;53.126;6.878;2023-07-13T02:22:57;4.90;;;2.30;;
52102;SDS011;38101;53.126;6.878;2023-07-13T02:25:22;4.78;;;2.13;;
52102;SDS011;38101;53.126;6.878;2023-07-13T02:27:50;6.85;;;2.65;;
52102;SDS011;38101;53.126;6.878;2023-07-13T02:30:15;5.63;;;2.45;;
52102;SDS011;38101;53.126;6.878;2023-07-13T02:32:41;5.07;;;2.10;;
52102;SDS011;38101;53.126;6.878;2023-07-13T02:35:08;4.95;;;2.45;;
52102;SDS011;38101;53.126;6.878;2023-07-13T02:37:34;5.88;;;2.63;;
52102;SDS011;38101;53.126;6.878;2023-07-13T02:40:00;6.00;;;2.53;;
52102;SDS011;38101;53.126;6.878;2023-07-13T02:42:25;3.88;;;2.10;;
52102;SDS011;38101;53.126;6.878;2023-07-13T02:44:51;7.03;;;2.40;;
52102;SDS011;38101;53.126;6.878;2023-07-13T02:47:17;8.07;;;2.35;;
52102;SDS011;38101;53.126;6.878;2023-07-13T02:49:42;6.35;;;2.10;;
52102;SDS011;38101;53.126;6.878;2023-07-13T02:52:09;5.80;;;2.70;;
52102;SDS011;38101;53.126;6.878;2023-07-13T02:54:34;3.95;;;2.15;;
52102;SDS011;38101;53.126;6.878;2023-07-13T02:57:00;6.07;;;2.53;;
52102;SDS011;38101;53.126;6.878;2023-07-13T02:59:26;5.10;;;2.33;;
52102;SDS011;38101;53.126;6.878;2023-07-13T03:01:51;5.80;;;2.20;;
52102;SDS011;38101;53.126;6.878;2023-07-13T03:04:17;7.15;;;3.00;;
52102;SDS011;38101;53.126;6.878;2023-07-13T03:06:44;5.53;;;2.45;;
52102;SDS011;38101;53.126;6.878;2023-07-13T03:09:10;5.45;;;2.17;;
52102;SDS011;38101;53.126;6.878;2023-07-13T03:11:37;4.55;;;2.20;;
52102;SDS011;38101;53.126;6.878;2023-07-13T03:14:03;5.53;;;2.95;;
52102;SDS011;38101;53.126;6.878;2023-07-13T03:16:29;6.43;;;2.40;;
52102;SDS011;38101;53.126;6.878;2023-07-13T03:18:55;5.63;;;2.47;;
52102;SDS011;38101;53.126;6.878;2023-07-13T03:21:20;6.65;;;2.85;;
52102;SDS011;38101;53.126;6.878;2023-07-13T03:23:46;7.40;;;2.60;;
52102;SDS011;38101;53.126;6.878;2023-07-13T03:26:16;4.93;;;2.30;;
52102;SDS011;38101;53.126;6.878;2023-07-13T03:28:44;6.32;;;2.50;;
52102;SDS011;38101;53.126;6.878;2023-07-13T03:31:12;6.70;;;3.10;;
52102;SDS011;38101;53.126;6.878;2023-07-13T03:33:42;5.82;;;2.50;;
52102;SDS011;38101;53.126;6.878;2023-07-13T03:36:12;5.15;;;2.58;;
52102;SDS011;38101;53.126;6.878;2023-07-13T03:38:41;5.43;;;2.08;;
52102;SDS011;38101;53.126;6.878;2023-07-13T03:41:07;6.55;;;3.03;;
52102;SDS011;38101;53.126;6.878;2023-07-13T03:43:32;6.05;;;2.35;;
52102;SDS011;38101;53.126;6.878;2023-07-13T03:45:58;3.95;;;2.17;;
52102;SDS011;38101;53.126;6.878;2023-07-13T03:48:24;4.82;;;2.50;;
52102;SDS011;38101;53.126;6.878;2023-07-13T03:50:49;8.13;;;2.85;;
52102;SDS011;38101;53.126;6.878;2023-07-13T03:53:15;5.10;;;2.50;;
52102;SDS011;38101;53.126;6.878;2023-07-13T03:55:41;8.07;;;2.75;;
52102;SDS011;38101;53.126;6.878;2023-07-13T04:00:53;8.10;;;2.72;;
52102;SDS011;38101;53.126;6.878;2023-07-13T04:03:20;6.70;;;2.67;;
52102;SDS011;38101;53.126;6.878;2023-07-13T04:05:46;7.00;;;2.42;;
52102;SDS011;38101;53.126;6.878;2023-07-13T04:08:11;7.07;;;3.10;;
52102;SDS011;38101;53.126;6.878;2023-07-13T04:10:38;5.57;;;2.42;;
52102;SDS011;38101;53.126;6.878;2023-07-13T04:13:04;6.82;;;2.50;;
52102;SDS011;38101;53.126;6.878;2023-07-13T04:15:30;6.10;;;2.47;;
52102;SDS011;38101;53.126;6.878;2023-07-13T04:17:56;7.47;;;2.67;;
52102;SDS011;38101;53.126;6.878;2023-07-13T04:20:24;6.25;;;2.63;;
52102;SDS011;38101;53.126;6.878;2023-07-13T04:22:51;5.07;;;2.20;;
52102;SDS011;38101;53.126;6.878;2023-07-13T04:25:18;6.70;;;2.83;;
52102;SDS011;38101;53.126;6.878;2023-07-13T04:27:44;5.07;;;2.55;;
52102;SDS011;38101;53.126;6.878;2023-07-13T04:30:09;6.15;;;3.00;;
52102;SDS011;38101;53.126;6.878;2023-07-13T04:32:35;9.25;;;2.80;;
52102;SDS011;38101;53.126;6.878;2023-07-13T04:35:01;5.75;;;2.40;;
52102;SDS011;38101;53.126;6.878;2023-07-13T04:37:26;8.32;;;3.00;;
52102;SDS011;38101;53.126;6.878;2023-07-13T04:39:52;7.13;;;2.40;;
52102;SDS011;38101;53.126;6.878;2023-07-13T04:42:18;5.85;;;2.55;;
52102;SDS011;38101;53.126;6.878;2023-07-13T04:44:47;6.55;;;2.65;;
52102;SDS011;38101;53.126;6.878;2023-07-13T04:47:14;7.53;;;2.92;;
52102;SDS011;38101;53.126;6.878;2023-07-13T04:49:40;6.95;;;3.13;;
52102;SDS011;38101;53.126;6.878;2023-07-13T04:52:06;5.70;;;2.70;;
52102;SDS011;38101;53.126;6.878;2023-07-13T04:54:32;5.05;;;2.85;;
52102;SDS011;38101;53.126;6.878;2023-07-13T04:56:59;6.28;;;2.67;;
52102;SDS011;38101;53.126;6.878;2023-07-13T04:59:24;6.38;;;2.67;;
52102;SDS011;38101;53.126;6.878;2023-07-13T05:01:50;4.95;;;2.30;;
52102;SDS011;38101;53.126;6.878;2023-07-13T05:04:16;6.97;;;2.50;;
52102;SDS011;38101;53.126;6.878;2023-07-13T05:06:42;8.40;;;2.50;;
52102;SDS011;38101;53.126;6.878;2023-07-13T05:09:08;8.50;;;3.10;;
52102;SDS011;38101;53.126;6.878;2023-07-13T05:11:33;6.32;;;2.85;;
52102;SDS011;38101;53.126;6.878;2023-07-13T05:13:59;7.68;;;2.95;;
52102;SDS011;38101;53.126;6.878;2023-07-13T05:16:26;9.32;;;2.55;;
52102;SDS011;38101;53.126;6.878;2023-07-13T05:18:52;6.78;;;2.95;;
52102;SDS011;38101;53.126;6.878;2023-07-13T05:21:18;5.38;;;2.50;;
52102;SDS011;38101;53.126;6.878;2023-07-13T05:23:44;5.15;;;2.65;;
52102;SDS011;38101;53.126;6.878;2023-07-13T05:26:09;4.68;;;2.50;;
52102;SDS011;38101;53.126;6.878;2023-07-13T05:28:36;6.78;;;2.80;;
52102;SDS011;38101;53.126;6.878;2023-07-13T05:31:02;6.70;;;2.40;;
52102;SDS011;38101;53.126;6.878;2023-07-13T05:33:28;4.88;;;2.40;;
52102;SDS011;38101;53.126;6.878;2023-07-13T05:35:55;5.65;;;2.28;;
52102;SDS011;38101;53.126;6.878;2023-07-13T05:38:20;6.07;;;2.83;;
52102;SDS011;38101;53.126;6.878;2023-07-13T05:40:46;5.85;;;2.83;;
52102;SDS011;38101;53.126;6.878;2023-07-13T05:43:13;6.18;;;2.40;;
52102;SDS011;38101;53.126;6.878;2023-07-13T05:45:39;7.53;;;2.90;;
52102;SDS011;38101;53.126;6.878;2023-07-13T05:48:05;5.72;;;2.70;;
52102;SDS011;38101;53.126;6.878;2023-07-13T05:50:31;7.22;;;2.50;;
52102;SDS011;38101;53.126;6.878;2023-07-13T05:52:57;9.20;;;3.60;;
52102;SDS011;38101;53.126;6.878;2023-07-13T05:55:22;5.25;;;2.70;;
52102;SDS011;38101;53.126;6.878;2023-07-13T05:57:48;4.25;;;2.40;;
52102;SDS011;38101;53.126;6.878;2023-07-13T06:00:14;5.75;;;2.83;;
52102;SDS011;38101;53.126;6.878;2023-07-13T06:02:40;8.07;;;3.50;;
52102;SDS011;38101;53.126;6.878;2023-07-13T06:05:06;6.38;;;2.78;;
52102;SDS011;38101;53.126;6.878;2023-07-13T06:07:32;6.88;;;3.03;;
52102;SDS011;38101;53.126;6.878;2023-07-13T06:09:58;6.05;;;2.40;;
52102;SDS011;38101;53.126;6.878;2023-07-13T06:12:24;8.50;;;3.10;;
52102;SDS011;38101;53.126;6.878;2023-07-13T06:14:50;5.68;;;2.78;;
52102;SDS011;38101;53.126;6.878;2023-07-13T06:17:16;7.38;;;2.35;;
52102;SDS011;38101;53.126;6.878;2023-07-13T06:19:42;6.60;;;2.58;;
52102;SDS011;38101;53.126;6.878;2023-07-13T06:22:07;5.53;;;2.17;;
52102;SDS011;38101;53.126;6.878;2023-07-13T06:24:33;4.72;;;2.47;;
52102;SDS011;38101;53.126;6.878;2023-07-13T06:27:00;7.22;;;2.70;;
52102;SDS011;38101;53.126;6.878;2023-07-13T06:29:25;6.78;;;2.60;;
52102;SDS011;38101;53.126;6.878;2023-07-13T06:31:51;8.25;;;2.53;;
52102;SDS011;38101;53.126;6.878;2023-07-13T06:34:17;4.82;;;2.63;;
52102;SDS011;38101;53.126;6.878;2023-07-13T06:36:43;6.25;;;2.78;;
52102;SDS011;38101;53.126;6.878;2023-07-13T06:39:09;6.30;;;2.50;;
52102;SDS011;38101;53.126;6.878;2023-07-13T06:41:34;6.55;;;2.70;;
52102;SDS011;38101;53.126;6.878;2023-07-13T06:44:00;6.28;;;2.90;;
52102;SDS011;38101;53.126;6.878;2023-07-13T06:46:26;6.30;;;2.83;;
52102;SDS011;38101;53.126;6.878;2023-07-13T06:48:53;5.00;;;2.65;;
52102;SDS011;38101;53.126;6.878;2023-07-13T06:51:19;6.78;;;2.55;;
52102;SDS011;38101;53.126;6.878;2023-07-13T06:53:45;4.75;;;2.58;;
52102;SDS011;38101;53.126;6.878;2023-07-13T06:56:11;6.78;;;2.47;;
52102;SDS011;38101;53.126;6.878;2023-07-13T06:58:36;6.38;;;2.50;;
52102;SDS011;38101;53.126;6.878;2023-07-13T07:01:03;4.85;;;2.60;;
52102;SDS011;38101;53.126;6.878;2023-07-13T07:03:29;7.75;;;2.70;;
52102;SDS011;38101;53.126;6.878;2023-07-13T07:06:02;6.10;;;2.67;;
52102;SDS011;38101;53.126;6.878;2023-07-13T07:08:37;7.90;;;2.60;;
52102;SDS011;38101;53.126;6.878;2023-07-13T07:11:02;6.57;;;2.80;;
52102;SDS011;38101;53.126;6.878;2023-07-13T07:13:28;4.43;;;2.30;;
52102;SDS011;38101;53.126;6.878;2023-07-13T07:15:54;8.20;;;2.67;;
52102;SDS011;38101;53.126;6.878;2023-07-13T07:18:20;6.75;;;2.38;;
52102;SDS011;38101;53.126;6.878;2023-07-13T07:20:46;5.88;;;2.35;;
52102;SDS011;38101;53.126;6.878;2023-07-13T07:23:11;4.57;;;2.22;;
52102;SDS011;38101;53.126;6.878;2023-07-13T07:25:37;3.45;;;2.03;;
52102;SDS011;38101;53.126;6.878;2023-07-13T07:28:07;4.63;;;2.38;;
52102;SDS011;38101;53.126;6.878;2023-07-13T07:30:33;5.28;;;2.50;;
52102;SDS011;38101;53.126;6.878;2023-07-13T07:32:59;3.78;;;2.30;;
52102;SDS011;38101;53.126;6.878;2023-07-13T07:35:24;3.20;;;2.35;;
52102;SDS011;38101;53.126;6.878;2023-07-13T07:37:50;5.45;;;2.22;;
52102;SDS011;38101;53.126;6.878;2023-07-13T07:40:15;5.72;;;2.30;;
52102;SDS011;38101;53.126;6.878;2023-07-13T07:42:41;4.18;;;2.30;;
52102;SDS011;38101;53.126;6.878;2023-07-13T07:45:07;6.32;;;2.20;;
52102;SDS011;38101;53.126;6.878;2023-07-13T07:47:33;3.45;;;2.05;;
52102;SDS011;38101;53.126;6.878;2023-07-13T07:49:58;4.95;;;2.30;;
52102;SDS011;38101;53.126;6.878;2023-07-13T07:52:24;3.65;;;2.10;;
52102;SDS011;38101;53.126;6.878;2023-07-13T07:54:50;9.05;;;3.72;;
52102;SDS011;38101;53.126;6.878;2023-07-13T07:57:15;10.38;;;4.45;;
52102;SDS011;38101;53.126;6.878;2023-07-13T07:59:41;8.70;;;4.05;;
52102;SDS011;38101;53.126;6.878;2023-07-13T08:02:08;6.72;;;3.45;;
52102;SDS011;38101;53.126;6.878;2023-07-13T08:04:35;6.10;;;2.50;;
52102;SDS011;38101;53.126;6.878;2023-07-13T08:07:01;4.03;;;2.25;;
52102;SDS011;38101;53.126;6.878;2023-07-13T08:09:28;5.95;;;2.53;;
52102;SDS011;38101;53.126;6.878;2023-07-13T08:11:54;4.82;;;2.40;;
52102;SDS011;38101;53.126;6.878;2023-07-13T08:14:20;4.95;;;2.17;;
52102;SDS011;38101;53.126;6.878;2023-07-13T08:16:46;3.35;;;2.05;;
52102;SDS011;38101;53.126;6.878;2023-07-13T08:19:11;5.47;;;2.50;;
52102;SDS011;38101;53.126;6.878;2023-07-13T08:21:37;5.00;;;2.30;;
52102;SDS011;38101;53.126;6.878;2023-07-13T08:24:03;3.92;;;2.35;;
52102;SDS011;38101;53.126;6.878;2023-07-13T08:26:29;8.48;;;3.45;;
52102;SDS011;38101;53.126;6.878;2023-07-13T08:28:54;5.80;;;3.20;;
52102;SDS011;38101;53.126;6.878;2023-07-13T08:31:20;7.60;;;3.80;;
52102;SDS011;38101;53.126;6.878;2023-07-13T08:33:46;6.47;;;3.35;;
52102;SDS011;38101;53.126;6.878;2023-07-13T08:36:12;5.10;;;2.75;;
52102;SDS011;38101;53.126;6.878;2023-07-13T08:38:37;5.05;;;2.80;;
52102;SDS011;38101;53.126;6.878;2023-07-13T08:41:09;3.92;;;2.60;;
52102;SDS011;38101;53.126;6.878;2023-07-13T08:43:38;5.50;;;2.88;;
52102;SDS011;38101;53.126;6.878;2023-07-13T08:46:09;5.95;;;2.78;;
52102;SDS011;38101;53.126;6.878;2023-07-13T08:49:13;4.93;;;2.97;;
52102;SDS011;38101;53.126;6.878;2023-07-13T08:54:45;3.88;;;2.33;;
52102;SDS011;38101;53.126;6.878;2023-07-13T08:57:21;4.90;;;2.92;;
52102;SDS011;38101;53.126;6.878;2023-07-13T08:59:56;4.00;;;2.40;;
52102;SDS011;38101;53.126;6.878;2023-07-13T09:02:44;4.57;;;2.58;;
52102;SDS011;38101;53.126;6.878;2023-07-13T09:05:18;6.65;;;2.50;;
52102;SDS011;38101;53.126;6.878;2023-07-13T09:13:51;4.13;;;2.20;;
52102;SDS011;38101;53.126;6.878;2023-07-13T09:16:20;4.95;;;2.63;;
52102;SDS011;38101;53.126;6.878;2023-07-13T09:18:48;5.57;;;2.05;;
52102;SDS011;38101;53.126;6.878;2023-07-13T09:21:32;4.10;;;2.50;;
52102;SDS011;38101;53.126;6.878;2023-07-13T09:24:18;4.90;;;2.70;;
52102;SDS011;38101;53.126;6.878;2023-07-13T09:26:56;3.63;;;1.95;;
52102;SDS011;38101;53.126;6.878;2023-07-13T09:29:28;3.75;;;2.00;;
52102;SDS011;38101;53.126;6.878;2023-07-13T09:31:58;2.60;;;1.90;;
52102;SDS011;38101;53.126;6.878;2023-07-13T09:34:28;4.20;;;2.67;;
52102;SDS011;38101;53.126;6.878;2023-07-13T09:36:56;3.55;;;2.55;;
52102;SDS011;38101;53.126;6.878;2023-07-13T09:39:29;3.65;;;2.10;;
52102;SDS011;38101;53.126;6.878;2023-07-13T09:45:06;3.35;;;2.30;;
52102;SDS011;38101;53.126;6.878;2023-07-13T09:49:58;3.35;;;2.00;;
52102;SDS011;38101;53.126;6.878;2023-07-13T09:52:39;4.63;;;2.40;;
52102;SDS011;38101;53.126;6.878;2023-07-13T09:58:12;5.80;;;2.40;;
52102;SDS011;38101;53.126;6.878;2023-07-13T10:00:59;4.45;;;2.30;;
52102;SDS011;38101;53.126;6.878;2023-07-13T10:03:30;3.95;;;2.50;;
52102;SDS011;38101;53.126;6.878;2023-07-13T10:06:19;4.03;;;2.25;;
52102;SDS011;38101;53.126;6.878;2023-07-13T10:08:47;4.85;;;2.60;;
52102;SDS011;38101;53.126;6.878;2023-07-13T10:11:20;4.63;;;2.40;;
52102;SDS011;38101;53.126;6.878;2023-07-13T10:13:58;5.60;;;3.33;;
52102;SDS011;38101;53.126;6.878;2023-07-13T10:16:30;6.38;;;3.63;;
52102;SDS011;38101;53.126;6.878;2023-07-13T10:19:02;5.55;;;3.25;;
52102;SDS011;38101;53.126;6.878;2023-07-13T10:21:38;7.55;;;3.40;;
52102;SDS011;38101;53.126;6.878;2023-07-13T10:24:21;5.60;;;3.60;;
52102;SDS011;38101;53.126;6.878;2023-07-13T10:29:44;5.47;;;3.17;;
52102;SDS011;38101;53.126;6.878;2023-07-13T10:32:15;5.22;;;3.28;;
52102;SDS011;38101;53.126;6.878;2023-07-13T10:34:41;6.38;;;3.20;;
52102;SDS011;38101;53.126;6.878;2023-07-13T10:37:20;5.18;;;2.55;;
52102;SDS011;38101;53.126;6.878;2023-07-13T10:39:48;3.92;;;2.58;;
52102;SDS011;38101;53.126;6.878;2023-07-13T10:42:17;3.95;;;2.90;;
52102;SDS011;38101;53.126;6.878;2023-07-13T10:44:50;4.07;;;2.92;;
52102;SDS011;38101;53.126;6.878;2023-07-13T10:47:16;3.70;;;2.80;;
52102;SDS011;38101;53.126;6.878;2023-07-13T10:49:43;5.97;;;2.72;;
52102;SDS011;38101;53.126;6.878;2023-07-13T10:53:16;4.30;;;2.67;;
52102;SDS011;38101;53.126;6.878;2023-07-13T10:58:40;4.90;;;2.75;;
52102;SDS011;38101;53.126;6.878;2023-07-13T11:00:57;5.13;;;2.60;;
52102;SDS011;38101;53.126;6.878;2023-07-13T11:06:17;3.60;;;2.55;;
52102;SDS011;38101;53.126;6.878;2023-07-13T11:11:46;3.42;;;2.55;;
52102;SDS011;38101;53.126;6.878;2023-07-13T11:22:45;2.28;;;1.90;;
52102;SDS011;38101;53.126;6.878;2023-07-13T11:25:33;3.33;;;1.83;;
52102;SDS011;38101;53.126;6.878;2023-07-13T11:33:10;3.30;;;2.20;;
52102;SDS011;38101;53.126;6.878;2023-07-13T11:38:20;5.55;;;3.20;;
52102;SDS011;38101;53.126;6.878;2023-07-13T11:40:55;4.65;;;2.53;;
52102;SDS011;38101;53.126;6.878;2023-07-13T11:43:23;3.72;;;2.40;;
52102;SDS011;38101;53.126;6.878;2023-07-13T11:45:49;4.25;;;2.10;;
52102;SDS011;38101;53.126;6.878;2023-07-13T11:50:50;3.70;;;2.00;;
52102;SDS011;38101;53.126;6.878;2023-07-13T11:53:21;4.38;;;1.90;;
52102;SDS011;38101;53.126;6.878;2023-07-13T11:55:47;4.00;;;2.00;;
52102;SDS011;38101;53.126;6.878;2023-07-13T11:58:16;3.15;;;1.98;;
52102;SDS011;38101;53.126;6.878;2023-07-13T12:00:46;3.90;;;2.15;;
52102;SDS011;38101;53.126;6.878;2023-07-13T12:03:13;2.80;;;1.77;;
52102;SDS011;38101;53.126;6.878;2023-07-13T12:05:56;3.30;;;1.70;;
52102;SDS011;38101;53.126;6.878;2023-07-13T12:08:44;3.30;;;2.00;;
52102;SDS011;38101;53.126;6.878;2023-07-13T12:11:17;3.00;;;1.80;;
52102;SDS011;38101;53.126;6.878;2023-07-13T12:13:43;4.35;;;1.83;;
52102;SDS011;38101;53.126;6.878;2023-07-13T12:16:28;2.22;;;1.63;;
52102;SDS011;38101;53.126;6.878;2023-07-13T12:18:57;3.15;;;1.88;;
52102;SDS011;38101;53.126;6.878;2023-07-13T12:21:32;2.88;;;1.48;;
52102;SDS011;38101;53.126;6.878;2023-07-13T12:24:05;5.13;;;1.70;;
52102;SDS011;38101;53.126;6.878;2023-07-13T12:26:40;5.50;;;2.15;;
52102;SDS011;38101;53.126;6.878;2023-07-13T12:29:06;3.75;;;1.80;;
52102;SDS011;38101;53.126;6.878;2023-07-13T12:31:37;3.33;;;1.55;;
52102;SDS011;38101;53.126;6.878;2023-07-13T12:36:37;3.47;;;1.52;;
52102;SDS011;38101;53.126;6.878;2023-07-13T12:39:19;5.43;;;1.95;;
52102;SDS011;38101;53.126;6.878;2023-07-13T12:41:45;3.63;;;1.73;;
52102;SDS011;38101;53.126;6.878;2023-07-13T12:44:18;3.58;;;1.80;;
52102;SDS011;38101;53.126;6.878;2023-07-13T12:46:55;3.80;;;2.05;;
52102;SDS011;38101;53.126;6.878;2023-07-13T12:49:30;4.40;;;2.10;;
52102;SDS011;38101;53.126;6.878;2023-07-13T12:52:01;4.50;;;1.83;;
52102;SDS011;38101;53.126;6.878;2023-07-13T12:54:28;4.75;;;1.90;;
52102;SDS011;38101;53.126;6.878;2023-07-13T12:56:55;2.90;;;1.80;;
52102;SDS011;38101;53.126;6.878;2023-07-13T12:59:23;3.97;;;1.90;;
52102;SDS011;38101;53.126;6.878;2023-07-13T13:01:54;3.72;;;1.77;;
52102;SDS011;38101;53.126;6.878;2023-07-13T13:04:20;3.97;;;1.90;;
52102;SDS011;38101;53.126;6.878;2023-07-13T13:06:46;3.63;;;1.80;;
52102;SDS011;38101;53.126;6.878;2023-07-13T13:09:14;2.95;;;1.60;;
52102;SDS011;38101;53.126;6.878;2023-07-13T13:11:43;3.88;;;1.60;;
52102;SDS011;38101;53.126;6.878;2023-07-13T13:14:09;2.90;;;1.42;;
52102;SDS011;38101;53.126;6.878;2023-07-13T13:16:35;1.98;;;1.30;;
52102;SDS011;38101;53.126;6.878;2023-07-13T13:19:15;2.72;;;1.40;;
52102;SDS011;38101;53.126;6.878;2023-07-13T13:21:43;4.22;;;1.58;;
52102;SDS011;38101;53.126;6.878;2023-07-13T13:24:11;2.75;;;1.42;;
52102;SDS011;38101;53.126;6.878;2023-07-13T13:26:42;3.38;;;1.90;;
52102;SDS011;38101;53.126;6.878;2023-07-13T13:29:11;2.47;;;1.75;;
52102;SDS011;38101;53.126;6.878;2023-07-13T13:31:39;3.95;;;1.70;;
52102;SDS011;38101;53.126;6.878;2023-07-13T13:34:07;3.67;;;1.95;;
52102;SDS011;38101;53.126;6.878;2023-07-13T13:36:36;3.22;;;1.63;;
52102;SDS011;38101;53.126;6.878;2023-07-13T13:39:05;3.28;;;1.60;;
52102;SDS011;38101;53.126;6.878;2023-07-13T13:41:40;3.78;;;2.00;;
52102;SDS011;38101;53.126;6.878;2023-07-13T13:44:08;5.35;;;1.83;;
52102;SDS011;38101;53.126;6.878;2023-07-13T13:46:35;5.50;;;1.65;;
52102;SDS011;38101;53.126;6.878;2023-07-13T13:49:01;5.13;;;1.55;;
52102;SDS011;38101;53.126;6.878;2023-07-13T13:51:27;3.50;;;1.50;;
52102;SDS011;38101;53.126;6.878;2023-07-13T13:53:54;4.05;;;1.98;;
52102;SDS011;38101;53.126;6.878;2023-07-13T13:56:20;2.65;;;1.55;;
52102;SDS011;38101;53.126;6.878;2023-07-13T13:58:46;4.45;;;1.83;;
52102;SDS011;38101;53.126;6.878;2023-07-13T14:01:22;2.75;;;1.60;;
52102;SDS011;38101;53.126;6.878;2023-07-13T14:03:49;3.72;;;1.80;;
52102;SDS011;38101;53.126;6.878;2023-07-13T14:06:16;4.05;;;1.67;;
52102;SDS011;38101;53.126;6.878;2023-07-13T14:08:43;4.60;;;2.17;;
52102;SDS011;38101;53.126;6.878;2023-07-13T14:11:12;4.60;;;1.70;;
52102;SDS011;38101;53.126;6.878;2023-07-13T14:13:41;5.35;;;1.80;;
52102;SDS011;38101;53.126;6.878;2023-07-13T14:16:13;4.30;;;1.67;;
52102;SDS011;38101;53.126;6.878;2023-07-13T14:18:43;4.50;;;1.85;;
52102;SDS011;38101;53.126;6.878;2023-07-13T14:21:17;3.65;;;1.80;;
52102;SDS011;38101;53.126;6.878;2023-07-13T14:23:45;3.15;;;1.83;;
52102;SDS011;38101;53.126;6.878;2023-07-13T14:26:12;5.28;;;1.75;;
52102;SDS011;38101;53.126;6.878;2023-07-13T14:28:44;4.32;;;2.00;;
52102;SDS011;38101;53.126;6.878;2023-07-13T14:31:13;4.60;;;2.10;;
52102;SDS011;38101;53.126;6.878;2023-07-13T14:33:40;5.22;;;2.08;;
52102;SDS011;38101;53.126;6.878;2023-07-13T14:36:48;5.35;;;1.98;;
52102;SDS011;38101;53.126;6.878;2023-07-13T14:39:01;3.10;;;1.88;;
52102;SDS011;38101;53.126;6.878;2023-07-13T14:41:35;6.93;;;2.28;;
52102;SDS011;38101;53.126;6.878;2023-07-13T14:44:00;3.28;;;2.17;;
52102;SDS011;38101;53.126;6.878;2023-07-13T14:46:30;3.83;;;1.90;;
52102;SDS011;38101;53.126;6.878;2023-07-13T14:49:05;2.97;;;1.90;;
52102;SDS011;38101;53.126;6.878;2023-07-13T14:51:38;4.50;;;2.15;;
52102;SDS011;38101;53.126;6.878;2023-07-13T14:54:05;5.43;;;1.90;;
52102;SDS011;38101;53.126;6.878;2023-07-13T14:56:33;3.10;;;2.22;;
52102;SDS011;38101;53.126;6.878;2023-07-13T14:58:59;2.85;;;1.98;;
52102;SDS011;38101;53.126;6.878;2023-07-13T15:01:25;3.13;;;1.95;;
52102;SDS011;38101;53.126;6.878;2023-07-13T15:03:52;3.78;;;1.90;;
52102;SDS011;38101;53.126;6.878;2023-07-13T15:06:18;4.53;;;2.00;;
52102;SDS011;38101;53.126;6.878;2023-07-13T15:08:44;5.50;;;2.20;;
52102;SDS011;38101;53.126;6.878;2023-07-13T15:11:11;4.38;;;2.10;;
52102;SDS011;38101;53.126;6.878;2023-07-13T15:13:40;3.28;;;1.70;;
52102;SDS011;38101;53.126;6.878;2023-07-13T15:16:10;3.90;;;1.80;;
52102;SDS011;38101;53.126;6.878;2023-07-13T15:18:44;3.50;;;1.80;;
52102;SDS011;38101;53.126;6.878;2023-07-13T15:21:12;4.18;;;2.00;;
52102;SDS011;38101;53.126;6.878;2023-07-13T15:23:43;3.30;;;1.83;;
52102;SDS011;38101;53.126;6.878;2023-07-13T15:26:13;2.85;;;1.70;;
52102;SDS011;38101;53.126;6.878;2023-07-13T15:28:44;4.82;;;1.70;;
52102;SDS011;38101;53.126;6.878;2023-07-13T15:31:21;4.35;;;1.95;;
52102;SDS011;38101;53.126;6.878;2023-07-13T15:33:51;4.22;;;2.08;;
52102;SDS011;38101;53.126;6.878;2023-07-13T15:36:20;3.80;;;2.08;;
52102;SDS011;38101;53.126;6.878;2023-07-13T15:38:47;3.20;;;1.70;;
52102;SDS011;38101;53.126;6.878;2023-07-13T15:43:49;4.07;;;2.00;;
52102;SDS011;38101;53.126;6.878;2023-07-13T15:46:18;4.20;;;2.28;;
52102;SDS011;38101;53.126;6.878;2023-07-13T15:48:46;2.95;;;1.80;;
52102;SDS011;38101;53.126;6.878;2023-07-13T15:51:15;5.18;;;2.13;;